Virgem Das Dores — CUBQ-8 — position and weather

sailwx.info

Track history (hours):
 
Tides and Currents Weather Stations Pressure Air Temp Water Temp Dewpoint Dewpoint Depression Visibility Wind Speed Wind Dir Waves Ship Positions

Virgem Das Dores

Last reported at 2017-Nov-07 13:09 UTC. Time now 2017-Dec-12 08:14 UTC.
Position N 41°13' W 008°44'.
Warning: this ship's position is 34 days out of date.

Length 22 m.

Type: Fishing. MMSI: 204248000.

Date/timePositionNaut miles runAvg speedWind from/ knotsBaromVisibWave heightAir tempDewpointWater temp
2017-Nov-07 13:09N 41°13' W 008°44'110.4
2017-Nov-07 13:01N 41°12' W 008°44'1 2.9
2017-Nov-07 12:31N 41°11' W 008°42'0 0.0
2017-Nov-07 12:01N 41°11' W 008°42'0 0.0
2017-Nov-07 11:30N 41°11' W 008°42'0 0.0
2017-Nov-07 11:01N 41°11' W 008°42'0 0.0
2017-Nov-07 10:31N 41°11' W 008°42'7 0.6
2017-Nov-06 22:56N 41°04' W 008°42'410.4
2017-Nov-06 22:31N 41°08' W 008°42'1 0.1
2017-Nov-06 00:12N 41°07' W 008°42'210.5
2017-Nov-06 00:00N 41°09' W 008°42'2 0.1
2017-Nov-04 11:09N 41°11' W 008°42'0 0.0
2017-Nov-04 11:01N 41°11' W 008°42'0 0.0
2017-Nov-03 11:24N 41°11' W 008°42'0 0.2
2017-Nov-03 11:00N 41°11' W 008°42'0 0.0
2017-Nov-03 10:30N 41°11' W 008°42'0 0.0
2017-Nov-03 10:00N 41°11' W 008°42'0 0.0
2017-Nov-03 09:30N 41°11' W 008°42'0 0.0
2017-Nov-03 09:00N 41°11' W 008°42'0 0.0
2017-Nov-03 08:30N 41°11' W 008°42'1 1.6
2017-Nov-03 08:00N 41°10' W 008°42'3 0.3
2017-Nov-02 22:34N 41°07' W 008°42'1 9.8
2017-Nov-02 22:30N 41°08' W 008°42'3 0.3
2017-Nov-02 12:12N 41°11' W 008°42'0 0.1
2017-Nov-02 12:00N 41°11' W 008°42'0 0.0
2017-Nov-02 11:30N 41°11' W 008°42'0 0.0
2017-Nov-02 11:00N 41°11' W 008°42'0 0.0
2017-Nov-02 10:30N 41°11' W 008°42'0 0.0
2017-Nov-02 10:00N 41°11' W 008°42'0 0.0
2017-Nov-02 09:30N 41°11' W 008°42'0 0.5
2017-Nov-02 09:00N 41°11' W 008°42'5 0.6
2017-Nov-01 23:50N 41°06' W 008°45'3 9.7
2017-Nov-01 23:30N 41°09' W 008°45'5 9.8
2017-Nov-01 23:00N 41°14' W 008°46'2 0.0
2017-Oct-31 10:16N 41°15' W 008°46'2 2.2
2017-Oct-31 09:21N 41°13' W 008°45'410.4
2017-Oct-31 09:00N 41°10' W 008°43'1 0.2
2017-Oct-31 05:21N 41°11' W 008°42'2 5.0
2017-Oct-31 05:00N 41°09' W 008°43'0 0.0
2017-Oct-29 23:11N 41°09' W 008°43'2 9.2
2017-Oct-29 23:00N 41°11' W 008°42'  
Track history (hours):
 
Tides and Currents Weather Stations Pressure Air Temp Water Temp Dewpoint Dewpoint Depression Visibility Wind Speed Wind Dir Waves Ship Positions

Virgem Das Dores

Last reported at 2017-Nov-07 13:09 UTC. Time now 2017-Dec-12 08:14 UTC.
Position N 41°13' W 008°44'.
Warning: this ship's position is 34 days out of date.

Length 22 m.

Type: Fishing. MMSI: 204248000.

Date/timePositionNaut miles runAvg speedWind from/ knotsBaromVisibWave heightAir tempDewpointWater temp
2017-Nov-07 13:09N 41°13' W 008°44'110.4
2017-Nov-07 13:01N 41°12' W 008°44'1 2.9
2017-Nov-07 12:31N 41°11' W 008°42'0 0.0
2017-Nov-07 12:01N 41°11' W 008°42'0 0.0
2017-Nov-07 11:30N 41°11' W 008°42'0 0.0
2017-Nov-07 11:01N 41°11' W 008°42'0 0.0
2017-Nov-07 10:31N 41°11' W 008°42'7 0.6
2017-Nov-06 22:56N 41°04' W 008°42'410.4
2017-Nov-06 22:31N 41°08' W 008°42'1 0.1
2017-Nov-06 00:12N 41°07' W 008°42'210.5
2017-Nov-06 00:00N 41°09' W 008°42'2 0.1
2017-Nov-04 11:09N 41°11' W 008°42'0 0.0
2017-Nov-04 11:01N 41°11' W 008°42'0 0.0
2017-Nov-03 11:24N 41°11' W 008°42'0 0.2
2017-Nov-03 11:00N 41°11' W 008°42'0 0.0
2017-Nov-03 10:30N 41°11' W 008°42'0 0.0
2017-Nov-03 10:00N 41°11' W 008°42'0 0.0
2017-Nov-03 09:30N 41°11' W 008°42'0 0.0
2017-Nov-03 09:00N 41°11' W 008°42'0 0.0
2017-Nov-03 08:30N 41°11' W 008°42'1 1.6
2017-Nov-03 08:00N 41°10' W 008°42'3 0.3
2017-Nov-02 22:34N 41°07' W 008°42'1 9.8
2017-Nov-02 22:30N 41°08' W 008°42'3 0.3
2017-Nov-02 12:12N 41°11' W 008°42'0 0.1
2017-Nov-02 12:00N 41°11' W 008°42'0 0.0
2017-Nov-02 11:30N 41°11' W 008°42'0 0.0
2017-Nov-02 11:00N 41°11' W 008°42'0 0.0
2017-Nov-02 10:30N 41°11' W 008°42'0 0.0
2017-Nov-02 10:00N 41°11' W 008°42'0 0.0
2017-Nov-02 09:30N 41°11' W 008°42'0 0.5
2017-Nov-02 09:00N 41°11' W 008°42'5 0.6
2017-Nov-01 23:50N 41°06' W 008°45'3 9.7
2017-Nov-01 23:30N 41°09' W 008°45'5 9.8
2017-Nov-01 23:00N 41°14' W 008°46'2 0.0
2017-Oct-31 10:16N 41°15' W 008°46'2 2.2
2017-Oct-31 09:21N 41°13' W 008°45'410.4
2017-Oct-31 09:00N 41°10' W 008°43'1 0.2
2017-Oct-31 05:21N 41°11' W 008°42'2 5.0
2017-Oct-31 05:00N 41°09' W 008°43'0 0.0
2017-Oct-29 23:11N 41°09' W 008°43'2 9.2
2017-Oct-29 23:00N 41°11' W 008°42'  

Dump ship's entire track history